Time;durP1;ratioP1;P1;durP2;ratioP2;P2;SDS_P1;SDS_P2;PMS_P1;PMS_P2;Temp;Humidity;BMP_temperature;BMP_pressure;BME280_temperature;BME280_humidity;BME280_pressure;Samples;Min_cycle;Max_cycle;Signal;HPM_P1;HPM_P2
2021/08/14 00:01:28;;;;;;;4.88;3.90;;;;;;;25.58;43.86;100134.72;5105966;28;20035;-68
2021/08/14 00:03:53;;;;;;;9.38;4.05;;;;;;;25.57;44.19;100141.66;5111103;28;20024;-68
2021/08/14 00:06:19;;;;;;;8.75;4.63;;;;;;;25.51;44.35;100140.50;5105476;28;20016;-68
2021/08/14 00:08:45;;;;;;;9.63;4.65;;;;;;;25.50;44.52;100148.25;5126697;27;20016;-68
2021/08/14 00:11:11;;;;;;;20.38;5.75;;;;;;;25.50;44.33;100141.75;5112618;28;20033;-68
2021/08/14 00:13:36;;;;;;;33.25;5.95;;;;;;;25.51;44.35;100146.22;5114329;27;20108;-68
2021/08/14 00:16:02;;;;;;;12.55;5.03;;;;;;;25.46;44.42;100149.50;5110871;28;20024;-68
2021/08/14 00:18:28;;;;;;;9.20;4.45;;;;;;;25.37;44.58;100147.94;5111429;28;20119;-67
2021/08/14 00:20:53;;;;;;;7.70;4.53;;;;;;;25.31;45.10;100154.53;5110796;28;20398;-67
2021/08/14 00:23:19;;;;;;;11.93;4.63;;;;;;;25.26;45.21;100152.09;5109542;28;20046;-68
2021/08/14 00:25:44;;;;;;;8.52;5.22;;;;;;;25.20;45.31;100164.00;5110712;28;20485;-68
2021/08/14 00:28:10;;;;;;;7.68;4.63;;;;;;;25.26;44.92;100150.06;5110835;28;20078;-67
2021/08/14 00:30:35;;;;;;;10.18;5.25;;;;;;;25.16;45.58;100154.66;5143943;27;20549;-69
2021/08/14 00:33:01;;;;;;;12.95;5.25;;;;;;;25.17;45.60;100164.88;5110969;28;20042;-68
2021/08/14 00:35:26;;;;;;;8.80;5.00;;;;;;;25.17;45.42;100173.44;5109755;28;20035;-68
2021/08/14 00:37:53;;;;;;;8.48;4.93;;;;;;;25.22;45.75;100166.47;5110488;28;20486;-68
2021/08/14 00:40:19;;;;;;;8.43;4.63;;;;;;;25.17;45.75;100167.72;5112934;28;20077;-68
2021/08/14 00:42:44;;;;;;;8.77;6.30;;;;;;;25.15;45.99;100158.72;5122381;27;20032;-68
2021/08/14 00:45:11;;;;;;;13.30;4.75;;;;;;;25.09;45.90;100171.84;5114728;28;20024;-68
2021/08/14 00:47:40;;;;;;;13.60;4.85;;;;;;;25.05;46.28;100159.63;5114946;28;20031;-68
2021/08/14 00:50:06;;;;;;;16.05;5.38;;;;;;;25.07;46.20;100166.53;5114999;28;20012;-68
2021/08/14 00:52:31;;;;;;;16.60;5.72;;;;;;;24.98;46.40;100165.38;5114785;28;20115;-68
2021/08/14 00:54:56;;;;;;;18.17;5.63;;;;;;;24.71;46.99;100177.34;5114855;28;20416;-67
2021/08/14 00:57:22;;;;;;;7.05;4.47;;;;;;;24.59;47.90;100182.31;5114671;28;20093;-68
2021/08/14 00:59:49;;;;;;;12.30;4.85;;;;;;;24.60;47.75;100188.81;5114570;28;20040;-68
2021/08/14 01:02:17;;;;;;;6.18;5.22;;;;;;;24.61;48.46;100188.41;5114711;28;20054;-68
2021/08/14 01:04:44;;;;;;;8.80;4.72;;;;;;;24.52;48.83;100202.34;5114412;27;20040;-68
2021/08/14 01:07:09;;;;;;;8.88;4.47;;;;;;;24.44;48.89;100195.03;5114584;28;20058;-68
2021/08/14 01:09:35;;;;;;;6.90;4.63;;;;;;;24.53;49.02;100201.09;5114392;28;20043;-68
2021/08/14 01:12:03;;;;;;;5.97;4.72;;;;;;;24.39;49.14;100194.19;5114512;27;20035;-68
2021/08/14 01:14:33;;;;;;;7.00;4.72;;;;;;;24.36;49.46;100205.63;5114055;28;20038;-69
2021/08/14 01:17:00;;;;;;;5.93;5.00;;;;;;;24.28;49.62;100206.91;5112923;28;20128;-68
2021/08/14 01:19:27;;;;;;;7.78;5.13;;;;;;;24.33;49.76;100209.31;5114096;28;20035;-68
2021/08/14 01:21:53;;;;;;;9.82;5.78;;;;;;;24.38;49.44;100204.00;5114327;28;20032;-67
2021/08/14 01:24:20;;;;;;;15.23;6.55;;;;;;;24.27;49.58;100211.78;5114088;28;20024;-68
2021/08/14 01:26:46;;;;;;;8.82;5.15;;;;;;;24.16;49.93;100203.25;5113862;28;20081;-67
2021/08/14 01:29:11;;;;;;;11.27;6.47;;;;;;;24.05;50.20;100208.97;5114088;28;20027;-67
2021/08/14 01:31:38;;;;;;;9.13;5.22;;;;;;;23.69;50.89;100206.09;5113764;28;20488;-68
2021/08/14 01:34:04;;;;;;;10.02;5.97;;;;;;;23.59;51.34;100206.91;5113885;28;20055;-68
2021/08/14 01:36:29;;;;;;;10.52;4.93;;;;;;;23.68;51.06;100207.31;5112411;28;20054;-67
2021/08/14 01:39:00;;;;;;;10.93;5.03;;;;;;;23.39;52.14;100202.41;5146973;27;20043;-68
2021/08/14 01:41:27;;;;;;;9.50;5.40;;;;;;;23.41;52.00;100208.56;5113917;28;20481;-68
2021/08/14 01:43:58;;;;;;;10.30;5.18;;;;;;;23.42;51.81;100204.47;5113598;28;20038;-67
2021/08/14 01:46:29;;;;;;;13.23;5.30;;;;;;;23.42;52.30;100201.63;5114295;28;20044;-67
2021/08/14 01:48:55;;;;;;;9.50;5.80;;;;;;;23.45;51.99;100204.88;5113667;28;20024;-67
2021/08/14 01:51:21;;;;;;;7.35;5.75;;;;;;;23.40;52.37;100206.09;5112917;28;20027;-68
2021/08/14 01:53:51;;;;;;;11.65;5.95;;;;;;;23.44;52.01;100204.06;5113311;28;20066;-68
2021/08/14 01:56:18;;;;;;;6.72;5.25;;;;;;;23.51;51.80;100197.53;5113573;28;20542;-68
2021/08/14 01:58:43;;;;;;;7.88;5.25;;;;;;;23.55;52.13;100196.31;5146266;27;20042;-68
2021/08/14 02:01:09;;;;;;;9.20;4.70;;;;;;;23.59;51.68;100201.19;5113463;28;20035;-68
2021/08/14 02:03:36;;;;;;;11.48;5.68;;;;;;;23.53;51.69;100195.91;5113317;28;20114;-68
2021/08/14 02:06:02;;;;;;;9.80;5.72;;;;;;;23.41;51.77;100190.59;5146349;27;20450;-68
2021/08/14 02:08:28;;;;;;;10.93;5.53;;;;;;;23.19;52.31;100195.44;5113688;28;20119;-68
2021/08/14 02:10:54;;;;;;;8.65;5.50;;;;;;;23.18;52.21;100190.97;5113180;28;20043;-69
2021/08/14 02:13:19;;;;;;;7.15;5.43;;;;;;;23.17;51.93;100197.84;5113573;28;20031;-68
2021/08/14 02:15:45;;;;;;;12.13;5.47;;;;;;;22.97;52.29;100193.31;5111618;28;20035;-68
2021/08/14 02:18:10;;;;;;;10.00;5.82;;;;;;;22.86;52.43;100190.44;5113561;28;20024;-68
2021/08/14 02:20:36;;;;;;;12.32;5.82;;;;;;;22.81;52.48;100201.44;5113082;28;20036;-68
2021/08/14 02:23:01;;;;;;;8.48;5.53;;;;;;;22.79;52.59;100196.13;5113342;28;20020;-68
2021/08/14 02:25:26;;;;;;;10.52;6.45;;;;;;;22.80;52.60;100185.53;5111684;28;20032;-68
2021/08/14 02:27:52;;;;;;;13.52;6.97;;;;;;;22.74;52.20;100185.13;5145794;27;20028;-68
2021/08/14 02:30:17;;;;;;;7.38;5.70;;;;;;;22.74;52.32;100179.41;5112891;28;20031;-67
2021/08/14 02:32:43;;;;;;;7.85;6.38;;;;;;;22.54;52.72;100181.78;5112905;28;20093;-67
2021/08/14 02:35:09;;;;;;;9.52;6.57;;;;;;;22.52;52.78;100182.16;5112871;27;20024;-68
2021/08/14 02:37:34;;;;;;;34.13;6.78;;;;;;;22.41;53.12;100175.56;5112808;28;20425;-68
2021/08/14 02:40:00;;;;;;;10.48;6.32;;;;;;;22.53;52.66;100178.09;5112598;28;20189;-67
2021/08/14 02:42:25;;;;;;;6.82;5.97;;;;;;;22.44;52.99;100174.75;5112576;28;20164;-68
2021/08/14 02:44:50;;;;;;;7.88;6.30;;;;;;;22.42;53.05;100177.19;5112297;28;20030;-68
2021/08/14 02:47:16;;;;;;;10.65;6.10;;;;;;;22.33;53.28;100171.88;5112589;27;20027;-68
2021/08/14 02:49:41;;;;;;;15.35;7.05;;;;;;;22.35;53.36;100174.34;5112280;27;20016;-67
2021/08/14 02:52:07;;;;;;;8.85;6.32;;;;;;;22.37;53.28;100180.44;5112496;28;20163;-68
2021/08/14 02:54:32;;;;;;;8.43;6.65;;;;;;;22.22;53.85;100182.38;5112393;28;20079;-68
2021/08/14 02:56:58;;;;;;;18.17;8.30;;;;;;;22.22;53.75;100180.38;5112033;28;20093;-67
2021/08/14 02:59:23;;;;;;;19.63;6.53;;;;;;;22.34;53.42;100178.41;5145407;27;20043;-67
2021/08/14 03:01:49;;;;;;;8.88;6.45;;;;;;;22.34;53.48;100178.41;5111186;28;20031;-67
2021/08/14 03:04:14;;;;;;;7.78;6.10;;;;;;;22.07;54.27;100179.47;5111217;28;20023;-68
2021/08/14 03:06:40;;;;;;;12.20;6.50;;;;;;;22.00;54.53;100180.22;5111928;28;20039;-67
2021/08/14 03:09:08;;;;;;;6.40;5.63;;;;;;;22.11;54.44;100173.78;5144968;27;20011;-67
2021/08/14 03:11:34;;;;;;;8.23;6.68;;;;;;;22.24;54.12;100177.09;5112108;28;20473;-67
2021/08/14 03:13:59;;;;;;;13.68;6.80;;;;;;;22.40;53.52;100180.47;5111632;28;20497;-67
2021/08/14 03:16:24;;;;;;;9.68;6.65;;;;;;;22.36;53.21;100184.50;5145075;27;20039;-67
2021/08/14 03:18:50;;;;;;;26.35;7.57;;;;;;;22.25;53.63;100181.59;5110571;28;20027;-67
2021/08/14 03:21:15;;;;;;;11.00;6.97;;;;;;;22.19;54.03;100184.00;5111601;28;20434;-67
2021/08/14 03:23:41;;;;;;;25.35;7.88;;;;;;;22.15;54.28;100186.00;5111778;28;20032;-67
2021/08/14 03:26:06;;;;;;;9.60;8.45;;;;;;;22.18;54.45;100182.38;5111772;27;20023;-67
2021/08/14 03:28:32;;;;;;;21.08;8.63;;;;;;;22.16;54.80;100190.50;5111592;28;20019;-67
2021/08/14 03:30:58;;;;;;;18.23;8.50;;;;;;;22.16;55.34;100190.50;5111444;28;20035;-68
2021/08/14 03:33:23;;;;;;;12.95;9.68;;;;;;;22.11;55.53;100194.53;5111998;28;20093;-67
2021/08/14 03:35:49;;;;;;;13.63;9.38;;;;;;;21.94;56.04;100196.03;5111963;28;20051;-67
2021/08/14 03:38:14;;;;;;;11.85;8.80;;;;;;;21.84;56.62;100199.63;5109875;28;20054;-68
2021/08/14 03:40:40;;;;;;;16.58;10.23;;;;;;;21.91;56.71;100199.69;5111420;28;20036;-67
2021/08/14 03:43:05;;;;;;;15.90;10.45;;;;;;;21.98;56.39;100196.06;5111688;28;20042;-67
2021/08/14 03:45:31;;;;;;;18.30;11.10;;;;;;;22.00;56.35;100199.34;5109942;28;20035;-67
2021/08/14 03:47:56;;;;;;;12.88;9.95;;;;;;;21.97;56.86;100212.34;5109920;28;20545;-67
2021/08/14 03:50:22;;;;;;;20.98;10.40;;;;;;;22.08;56.52;100203.88;5111187;28;20028;-68
2021/08/14 03:52:47;;;;;;;12.48;9.25;;;;;;;21.99;56.92;100211.94;5111593;28;20047;-70
2021/08/14 03:55:13;;;;;;;21.20;11.00;;;;;;;21.88;57.24;100209.03;5111075;28;20043;-69
2021/08/14 03:57:38;;;;;;;12.63;9.90;;;;;;;21.90;57.40;100209.44;5111409;28;20062;-71
2021/08/14 04:00:05;;;;;;;13.13;10.32;;;;;;;21.92;57.13;100215.56;5111206;28;20019;-72
2021/08/14 04:02:30;;;;;;;14.68;9.50;;;;;;;21.89;57.27;100216.34;5109634;28;20031;-73
2021/08/14 04:04:56;;;;;;;12.20;9.82;;;;;;;22.07;56.67;100221.34;5110664;28;20024;-71
2021/08/14 04:07:21;;;;;;;17.23;9.05;;;;;;;22.03;56.82;100224.19;5110507;28;20469;-76
2021/08/14 04:09:46;;;;;;;30.23;10.57;;;;;;;21.98;56.88;100230.25;5109226;28;20018;-73
2021/08/14 04:12:12;;;;;;;14.45;9.40;;;;;;;22.10;56.47;100232.78;5110105;28;20077;-76
2021/08/14 04:14:41;;;;;;;22.50;9.93;;;;;;;22.20;56.58;100230.41;5110106;28;20028;-77
2021/08/14 04:17:06;;;;;;;14.43;9.80;;;;;;;22.19;56.69;100235.28;5109057;28;20034;-77
2021/08/14 04:19:32;;;;;;;16.20;9.18;;;;;;;22.23;56.56;100233.28;5110389;28;20044;-75
2021/08/14 04:21:57;;;;;;;17.70;9.38;;;;;;;22.16;56.84;100239.75;5110977;28;20048;-76
2021/08/14 04:24:23;;;;;;;20.25;10.88;;;;;;;22.19;56.80;100249.50;5109484;28;20320;-75
2021/08/14 04:26:48;;;;;;;14.93;9.90;;;;;;;22.13;56.89;100251.13;5110532;28;20061;-73
2021/08/14 04:29:14;;;;;;;16.45;10.98;;;;;;;22.21;56.58;100241.41;5109462;28;20027;-74
2021/08/14 04:31:39;;;;;;;12.88;10.38;;;;;;;22.09;56.84;100239.69;5109361;28;20123;-71
2021/08/14 04:34:05;;;;;;;16.67;10.57;;;;;;;22.26;56.39;100243.06;5109308;28;20030;-73
2021/08/14 04:36:30;;;;;;;14.25;9.57;;;;;;;22.30;55.92;100247.56;5110675;28;20035;-69
2021/08/14 04:38:56;;;;;;;14.30;10.45;;;;;;;22.24;56.44;100251.19;5110630;28;20103;-69
2021/08/14 04:41:22;;;;;;;560.63;62.53;;;;;;;22.32;56.77;100249.19;5110541;28;20123;-72
2021/08/14 04:43:47;;;;;;;45.72;12.55;;;;;;;22.26;57.01;100246.72;5110501;28;20039;-74
2021/08/14 04:46:13;;;;;;;36.60;12.40;;;;;;;22.37;56.74;100240.28;5110517;28;20043;-70
2021/08/14 04:48:38;;;;;;;71.32;13.43;;;;;;;22.36;57.16;100252.91;5106231;28;20055;-78
2021/08/14 04:51:04;;;;;;;42.28;12.05;;;;;;;22.37;58.05;100248.84;5111044;28;20136;-71
2021/08/14 04:53:29;;;;;;;22.15;11.40;;;;;;;22.65;57.69;100247.38;5126311;28;20035;-71
2021/08/14 04:55:55;;;;;;;21.05;10.80;;;;;;;22.97;56.94;100256.06;5109081;28;20024;-70
2021/08/14 04:58:20;;;;;;;12.35;9.68;;;;;;;22.92;57.08;100252.78;5109475;28;20036;-74
2021/08/14 05:00:46;;;;;;;14.10;9.43;;;;;;;23.11;56.46;100249.63;5110445;28;20027;-73
2021/08/14 05:03:11;;;;;;;18.02;10.70;;;;;;;23.13;55.72;100255.72;5110939;28;20028;-74
2021/08/14 05:05:37;;;;;;;15.23;11.02;;;;;;;23.29;55.31;100243.19;5109393;28;20031;-72
2021/08/14 05:08:02;;;;;;;15.98;10.55;;;;;;;23.29;54.88;100237.47;5111014;28;20054;-71
2021/08/14 05:10:28;;;;;;;12.68;10.05;;;;;;;23.26;55.47;100241.91;5109213;28;20032;-70
2021/08/14 05:12:53;;;;;;;21.77;10.52;;;;;;;23.24;55.59;100234.97;5110678;28;20496;-70
2021/08/14 05:15:19;;;;;;;20.75;9.57;;;;;;;23.61;54.95;100236.69;5110492;28;20057;-70
2021/08/14 05:17:44;;;;;;;22.48;11.05;;;;;;;23.49;54.94;100234.25;5110567;28;20020;-70
2021/08/14 05:20:10;;;;;;;15.23;9.70;;;;;;;23.58;54.99;100237.53;5110417;28;20020;-73
2021/08/14 05:22:35;;;;;;;23.20;13.55;;;;;;;23.80;53.31;100232.63;5110442;28;20028;-71
2021/08/14 05:25:01;;;;;;;28.10;12.68;;;;;;;23.86;53.19;100227.31;5110485;28;20031;-70
2021/08/14 05:27:26;;;;;;;20.58;11.63;;;;;;;23.97;52.72;100231.00;5114343;28;20023;-71
2021/08/14 05:29:52;;;;;;;16.60;11.95;;;;;;;24.04;52.88;100221.63;5114031;28;20027;-71
2021/08/14 05:32:17;;;;;;;21.58;12.30;;;;;;;24.08;52.44;100231.03;5112761;28;20493;-71
2021/08/14 05:34:43;;;;;;;16.23;10.73;;;;;;;23.98;52.74;100224.03;5112574;28;20027;-70
2021/08/14 05:37:08;;;;;;;11.55;8.93;;;;;;;23.89;52.56;100223.66;5113741;28;20136;-71
2021/08/14 05:39:33;;;;;;;15.98;8.38;;;;;;;24.02;51.92;100226.09;5113830;28;20073;-74
2021/08/14 05:41:59;;;;;;;14.48;8.50;;;;;;;24.05;51.88;100219.59;5112783;28;20046;-74
2021/08/14 05:44:25;;;;;;;16.30;8.43;;;;;;;24.12;52.37;100225.28;5112232;28;20031;-71
2021/08/14 05:46:50;;;;;;;13.75;8.48;;;;;;;24.20;51.43;100229.78;5113605;28;20035;-72
2021/08/14 05:49:15;;;;;;;11.50;8.70;;;;;;;24.30;51.15;100225.25;5113587;28;20073;-69
2021/08/14 05:51:41;;;;;;;15.43;8.23;;;;;;;24.29;50.75;100231.41;5113585;28;20051;-72
2021/08/14 05:54:07;;;;;;;14.38;8.23;;;;;;;24.34;50.74;100223.22;5113426;28;20045;-72
2021/08/14 05:56:32;;;;;;;11.50;9.00;;;;;;;24.52;50.64;100222.34;5113628;28;20032;-68
2021/08/14 05:58:57;;;;;;;12.55;8.43;;;;;;;24.64;50.39;100218.22;5113304;28;20026;-68
2021/08/14 06:01:23;;;;;;;12.20;7.10;;;;;;;24.70;49.17;100219.41;5146985;27;20730;-67
2021/08/14 06:03:48;;;;;;;11.38;6.80;;;;;;;24.73;49.01;100221.44;5113310;28;20058;-69
2021/08/14 06:06:14;;;;;;;11.10;7.47;;;;;;;24.85;49.15;100216.53;5112803;28;20500;-69
2021/08/14 06:08:39;;;;;;;10.00;6.28;;;;;;;24.87;49.03;100212.03;5124758;27;20468;-71
2021/08/14 06:11:05;;;;;;;10.07;6.72;;;;;;;24.91;48.19;100212.00;5120217;27;20031;-74
2021/08/14 06:13:30;;;;;;;7.68;6.82;;;;;;;25.04;48.65;100207.44;5114623;27;20031;-69
2021/08/14 06:15:56;;;;;;;8.63;6.22;;;;;;;25.06;47.86;100213.56;5123594;27;20015;-68
2021/08/14 06:18:21;;;;;;;7.65;6.00;;;;;;;25.16;47.72;100200.44;5122536;27;20028;-73
2021/08/14 06:20:46;;;;;;;9.07;6.63;;;;;;;25.21;48.17;100213.47;5113023;28;20028;-69
2021/08/14 06:23:12;;;;;;;16.88;7.03;;;;;;;25.23;47.30;100206.09;5111182;28;20027;-70
2021/08/14 06:25:37;;;;;;;8.27;6.43;;;;;;;25.23;46.65;100197.50;5112619;28;20039;-71
2021/08/14 06:28:03;;;;;;;9.13;5.88;;;;;;;25.35;47.27;100198.25;5111587;28;20185;-73
2021/08/14 06:30:29;;;;;;;8.13;6.55;;;;;;;25.51;46.67;100187.13;5145938;27;20031;-69
2021/08/14 06:32:54;;;;;;;13.55;6.90;;;;;;;25.51;46.30;100187.13;5112307;28;20993;-71
2021/08/14 06:35:20;;;;;;;10.18;6.40;;;;;;;25.52;46.48;100185.06;5111973;28;20401;-68
2021/08/14 06:37:45;;;;;;;10.55;6.28;;;;;;;25.53;46.59;100178.13;5110823;28;20460;-69
2021/08/14 06:40:13;;;;;;;10.05;6.03;;;;;;;25.59;46.15;100192.78;5114401;27;21244;-68
2021/08/14 06:42:39;;;;;;;9.13;5.78;;;;;;;25.70;46.74;100184.09;5113647;27;20114;-68
2021/08/14 06:45:05;;;;;;;12.57;7.32;;;;;;;25.70;45.64;100186.97;5108398;28;20024;-69
2021/08/14 06:47:30;;;;;;;10.73;7.20;;;;;;;25.78;45.89;100191.41;5110289;27;20035;-70
2021/08/14 06:49:56;;;;;;;9.52;6.97;;;;;;;25.75;46.01;100195.91;5108417;28;20035;-71
2021/08/14 06:52:21;;;;;;;14.68;6.20;;;;;;;25.87;45.43;100188.88;5109388;28;20088;-70
2021/08/14 06:54:47;;;;;;;11.77;6.13;;;;;;;26.03;44.97;100188.31;5103990;28;20402;-68
2021/08/14 06:57:13;;;;;;;9.57;6.35;;;;;;;25.91;44.93;100192.50;5110472;28;20477;-70
2021/08/14 06:59:38;;;;;;;20.38;5.70;;;;;;;25.89;45.22;100189.25;5111815;28;20086;-69
2021/08/14 07:02:04;;;;;;;9.43;6.05;;;;;;;26.00;44.93;100176.88;5108688;28;20028;-68
2021/08/14 07:04:29;;;;;;;10.90;6.50;;;;;;;26.12;44.76;100186.97;5143155;27;20034;-71
2021/08/14 07:06:55;;;;;;;11.18;6.00;;;;;;;26.12;44.62;100176.34;5110066;28;20442;-70
2021/08/14 07:09:21;;;;;;;18.70;9.32;;;;;;;26.06;45.13;100186.63;5110066;28;20538;-76
2021/08/14 07:11:46;;;;;;;11.90;6.35;;;;;;;26.11;45.27;100171.03;5110243;28;20027;-69
2021/08/14 07:14:12;;;;;;;27.08;6.93;;;;;;;26.24;44.84;100182.81;5109583;28;20027;-69
2021/08/14 07:16:38;;;;;;;15.40;7.00;;;;;;;26.46;44.03;100169.03;5110608;27;20038;-71
2021/08/14 07:19:04;;;;;;;32.47;16.35;;;;;;;26.44;43.75;100177.25;5111217;28;20031;-69
2021/08/14 07:21:29;;;;;;;16.50;9.60;;;;;;;26.49;43.89;100174.72;5116967;27;20039;-74
2021/08/14 07:23:55;;;;;;;28.77;15.93;;;;;;;26.52;43.68;100167.31;5116857;27;20516;-70
2021/08/14 07:26:21;;;;;;;29.80;13.70;;;;;;;26.55;44.01;100171.41;5111651;28;20023;-70
2021/08/14 07:28:46;;;;;;;13.30;7.25;;;;;;;26.52;44.19;100166.50;5111911;28;20412;-68
2021/08/14 07:31:12;;;;;;;30.00;15.90;;;;;;;26.70;43.53;100166.28;5110770;28;20019;-71
2021/08/14 07:33:37;;;;;;;45.50;23.80;;;;;;;26.71;43.13;100171.59;5109930;27;20130;-71
2021/08/14 07:36:05;;;;;;;14.30;10.35;;;;;;;26.78;43.14;100174.34;5109277;28;20020;-71
2021/08/14 07:38:31;;;;;;;17.30;10.13;;;;;;;26.89;43.22;100167.69;5109813;28;20104;-70
2021/08/14 07:40:56;;;;;;;12.80;8.05;;;;;;;26.93;43.27;100173.38;5108197;28;20020;-70
2021/08/14 07:43:21;;;;;;;8.63;7.30;;;;;;;27.02;42.96;100165.84;5109298;28;20284;-70
2021/08/14 07:45:47;;;;;;;15.63;6.88;;;;;;;27.09;42.75;100162.09;5109326;28;20024;-75
2021/08/14 07:48:13;;;;;;;10.13;6.82;;;;;;;27.22;42.71;100167.25;5108813;28;20059;-70
2021/08/14 07:50:39;;;;;;;12.75;7.10;;;;;;;27.32;42.95;100167.06;5110088;28;20094;-74
2021/08/14 07:53:05;;;;;;;12.55;8.95;;;;;;;27.47;43.26;100164.78;5111613;28;20039;-70
2021/08/14 07:55:31;;;;;;;9.80;6.72;;;;;;;27.61;41.97;100160.88;5111216;28;20039;-72
2021/08/14 07:57:57;;;;;;;33.45;9.32;;;;;;;27.63;42.25;100156.75;5144356;27;20024;-71
2021/08/14 08:00:24;;;;;;;22.95;7.18;;;;;;;27.65;42.88;100160.00;5111154;28;20084;-73
2021/08/14 08:02:51;;;;;;;12.88;6.03;;;;;;;27.67;42.72;100160.38;5127085;27;20042;-71
2021/08/14 08:05:17;;;;;;;8.35;7.40;;;;;;;27.71;42.33;100153.31;5111034;28;20039;-71
2021/08/14 08:07:45;;;;;;;7.88;6.32;;;;;;;27.88;41.67;100148.50;5111221;28;20433;-70
2021/08/14 08:10:12;;;;;;;14.20;7.30;;;;;;;27.94;42.16;100145.13;5104946;28;20091;-70
2021/08/14 08:12:37;;;;;;;11.20;6.15;;;;;;;27.89;42.00;100141.50;5098016;28;20549;-71
2021/08/14 08:15:07;;;;;;;16.13;7.60;;;;;;;27.83;42.17;100137.50;5105215;28;20032;-70
2021/08/14 08:17:33;;;;;;;24.38;7.18;;;;;;;27.94;41.57;100142.25;5106861;28;20027;-70
2021/08/14 08:19:58;;;;;;;10.20;5.50;;;;;;;28.08;41.28;100138.28;5110910;28;20032;-70
2021/08/14 08:22:24;;;;;;;22.25;8.18;;;;;;;28.17;41.52;100139.34;5144950;27;20063;-71
2021/08/14 08:24:50;;;;;;;23.23;7.30;;;;;;;28.25;41.07;100133.47;5114780;27;20038;-71
2021/08/14 08:27:15;;;;;;;15.15;8.38;;;;;;;28.29;40.48;100143.63;5115536;27;20485;-70
2021/08/14 08:29:41;;;;;;;11.13;5.63;;;;;;;28.38;40.91;100130.72;5111086;28;20047;-70
2021/08/14 08:32:07;;;;;;;11.50;6.63;;;;;;;28.50;40.46;100130.06;5109583;28;20061;-70
2021/08/14 08:34:33;;;;;;;16.95;8.05;;;;;;;28.54;40.76;100127.94;5109040;28;20024;-70
2021/08/14 08:36:59;;;;;;;50.30;7.93;;;;;;;28.68;40.35;100131.75;5098205;28;20481;-69
2021/08/14 08:39:24;;;;;;;13.25;6.72;;;;;;;28.79;40.06;100126.56;5110875;28;20047;-71
2021/08/14 08:41:51;;;;;;;14.65;6.50;;;;;;;28.80;39.50;100127.34;5110715;28;20023;-71
2021/08/14 08:44:18;;;;;;;8.77;6.03;;;;;;;28.83;39.96;100120.75;5110754;28;20024;-70
2021/08/14 08:46:46;;;;;;;12.00;6.95;;;;;;;28.92;39.38;100118.06;5143512;27;20059;-69
2021/08/14 08:49:13;;;;;;;7.82;6.53;;;;;;;29.03;39.33;100114.94;5110560;28;20028;-71
2021/08/14 08:51:39;;;;;;;9.40;5.68;;;;;;;29.21;38.95;100117.41;5110426;28;20036;-70
2021/08/14 08:54:04;;;;;;;13.98;6.63;;;;;;;29.40;38.12;100111.97;5109061;28;20027;-70
2021/08/14 08:56:30;;;;;;;14.45;6.95;;;;;;;29.53;39.36;100110.03;5110464;28;20032;-69
2021/08/14 08:58:56;;;;;;;14.07;6.78;;;;;;;29.37;39.69;100110.00;5110292;28;20080;-76
2021/08/14 09:01:21;;;;;;;10.02;5.60;;;;;;;29.59;38.12;100107.41;5111408;28;20085;-70
2021/08/14 09:03:47;;;;;;;12.43;6.70;;;;;;;29.87;37.82;100102.16;5114388;28;20035;-70
2021/08/14 09:06:13;;;;;;;8.95;5.75;;;;;;;30.01;37.49;100100.13;5113961;28;20658;-71
2021/08/14 09:08:38;;;;;;;7.53;6.55;;;;;;;29.90;38.68;100094.66;5112985;28;20042;-70
2021/08/14 09:11:10;;;;;;;7.47;6.45;;;;;;;29.73;37.76;100091.81;5114077;28;20428;-72
2021/08/14 09:13:36;;;;;;;10.80;6.22;;;;;;;29.84;37.78;100086.56;5114089;27;20030;-72
2021/08/14 09:16:22;;;;;;;10.75;6.40;;;;;;;29.78;37.43;100078.94;5114014;28;20064;-74
2021/08/14 09:18:59;;;;;;;9.10;5.85;;;;;;;29.80;37.30;100085.84;5112989;28;20110;-69
2021/08/14 09:21:33;;;;;;;8.60;6.07;;;;;;;30.12;35.61;100086.25;5128522;27;20073;-71
2021/08/14 09:24:04;;;;;;;6.20;5.60;;;;;;;30.22;33.96;100072.78;5111421;28;20547;-68
2021/08/14 09:26:32;;;;;;;14.07;6.75;;;;;;;30.14;35.09;100069.28;5111794;28;20593;-70
2021/08/14 09:29:05;;;;;;;9.00;5.20;;;;;;;30.47;32.19;100063.38;5104829;28;20024;-70
2021/08/14 09:31:52;;;;;;;5.63;4.65;;;;;;;30.58;32.57;100065.91;5110830;28;20516;-70
2021/08/14 09:34:20;;;;;;;6.93;5.28;;;;;;;30.78;32.31;100064.91;5109242;28;20027;-69
2021/08/14 09:37:01;;;;;;;7.00;4.97;;;;;;;31.00;29.80;100055.53;5101248;28;20032;-71
2021/08/14 09:39:28;;;;;;;6.70;5.05;;;;;;;31.04;28.61;100053.34;5110849;28;20493;-70
2021/08/14 09:42:05;;;;;;;9.32;5.72;;;;;;;31.14;30.48;100055.09;5111859;28;20067;-69
2021/08/14 09:44:32;;;;;;;7.28;6.07;;;;;;;30.99;30.59;100048.97;5112075;28;20030;-71
2021/08/14 09:47:01;;;;;;;5.88;4.93;;;;;;;31.09;30.08;100047.00;5136149;27;20575;-69
2021/08/14 09:49:54;;;;;;;8.65;5.18;;;;;;;31.18;29.36;100035.53;5112873;27;20032;-69
2021/08/14 09:52:24;;;;;;;10.20;5.22;;;;;;;31.34;29.05;100034.63;5127719;27;20055;-71
2021/08/14 09:54:51;;;;;;;14.43;6.22;;;;;;;31.45;28.96;100028.44;5113561;27;20035;-71
2021/08/14 09:57:17;;;;;;;17.60;7.40;;;;;;;31.34;29.26;100025.13;5113601;28;20035;-71
2021/08/14 09:59:47;;;;;;;9.60;5.88;;;;;;;31.35;30.20;100023.84;5146714;27;20509;-70
2021/08/14 10:02:27;;;;;;;14.05;7.07;;;;;;;31.46;28.67;100021.38;5114465;27;20042;-71
2021/08/14 10:04:57;;;;;;;12.63;6.13;;;;;;;31.49;29.72;100023.34;5144376;27;20035;-70
2021/08/14 10:07:24;;;;;;;14.43;6.50;;;;;;;31.34;30.11;100019.34;5112963;28;20515;-73
2021/08/14 10:09:51;;;;;;;9.25;6.22;;;;;;;31.42;29.26;100008.34;5096591;28;20505;-71
2021/08/14 10:12:18;;;;;;;8.60;7.00;;;;;;;31.41;28.09;100010.44;5104657;27;20027;-70
2021/08/14 10:14:45;;;;;;;6.60;6.00;;;;;;;31.35;29.95;100000.72;5097125;28;20030;-70
2021/08/14 10:17:12;;;;;;;6.90;6.20;;;;;;;31.48;29.06;100001.50;5105916;28;20032;-70
2021/08/14 10:19:38;;;;;;;13.45;6.85;;;;;;;31.62;28.74;100005.97;5112543;28;20416;-70
2021/08/14 10:22:05;;;;;;;12.65;6.85;;;;;;;31.80;29.12;99995.88;5102188;28;20036;-70
2021/08/14 10:24:43;;;;;;;8.18;7.38;;;;;;;31.70;28.08;99991.25;5109634;28;20015;-70
2021/08/14 10:27:19;;;;;;;7.18;6.47;;;;;;;31.44;28.65;99997.16;5105571;28;20557;-69
2021/08/14 10:29:52;;;;;;;8.07;6.88;;;;;;;31.51;28.17;99991.09;5106411;28;20112;-69
2021/08/14 10:32:29;;;;;;;7.25;6.50;;;;;;;31.48;30.07;99981.25;5108054;28;20411;-70
2021/08/14 10:35:14;;;;;;;9.55;6.43;;;;;;;31.60;29.10;99978.78;5110868;28;20038;-70
2021/08/14 10:37:48;;;;;;;7.75;6.95;;;;;;;31.68;29.17;99976.44;5103334;28;20309;-70
2021/08/14 10:40:15;;;;;;;11.15;7.45;;;;;;;31.83;28.59;99973.84;5145498;27;20112;-70
2021/08/14 10:42:49;;;;;;;8.40;7.30;;;;;;;32.12;28.54;99975.66;5145418;27;20039;-71
2021/08/14 10:45:19;;;;;;;9.43;7.10;;;;;;;31.83;28.57;99970.97;5113733;27;20028;-71
2021/08/14 10:47:46;;;;;;;9.27;6.90;;;;;;;31.89;28.76;99967.00;5111679;28;20043;-72
2021/08/14 10:50:29;;;;;;;7.72;6.45;;;;;;;31.90;28.85;99959.94;5111914;28;20446;-72
2021/08/14 10:53:15;;;;;;;9.57;6.07;;;;;;;32.13;28.39;99957.03;5101455;28;20032;-72
2021/08/14 10:56:00;;;;;;;9.10;6.60;;;;;;;32.12;28.37;99956.19;5112266;28;20031;-72
2021/08/14 10:58:36;;;;;;;10.65;7.13;;;;;;;32.03;27.27;99956.97;5098125;28;20493;-72
2021/08/14 11:01:05;;;;;;;7.72;6.75;;;;;;;32.14;28.02;99950.75;5128058;27;20036;-72
2021/08/14 11:03:39;;;;;;;17.55;6.63;;;;;;;32.20;27.59;99954.66;5106369;28;20028;-72
2021/08/14 11:06:32;;;;;;;7.38;6.65;;;;;;;32.53;27.52;99941.00;5106445;28;20486;-72
2021/08/14 11:09:16;;;;;;;8.73;6.85;;;;;;;32.28;28.04;99943.59;5107252;28;20053;-72
2021/08/14 11:11:43;;;;;;;6.60;6.00;;;;;;;32.25;28.17;99944.53;5111593;28;20027;-72
2021/08/14 11:14:12;;;;;;;7.30;6.00;;;;;;;32.32;28.10;99944.25;5111500;28;20394;-72
2021/08/14 11:16:57;;;;;;;10.57;6.70;;;;;;;32.39;28.11;99951.84;5110240;28;20061;-72
2021/08/14 11:19:43;;;;;;;8.02;6.30;;;;;;;32.38;27.93;99947.34;5110087;28;20062;-72